• Join FlightAware (Why Join?)
  • Login
  • US Flag 
04:03PM EDT


 

Airport Tracker/Info


-or-


 

Live Flight TrackerFlight Track Log ✈ N8932U ✈ 29-Aug-2013 ✈ KDZJ - KLAL

Flight Track Log - Related Links

Times and Time Zones

All times are in EDT time to prevent confusion due to time zone crossing. See the N8932U flight status page for this flight to view local times or setup timezone preferences in your user account.

Time Position Orientation Groundspeed Altitude Reporting Facility
EDT Latitude Longitude Course Direction KTS MPH feet Rate Location/Type
11:37AM 34.7833 -83.9275 144° Southeast 158 182 4,500  Level Atlanta Center
11:38AM 34.7522 -83.8997 144° Southeast 145 167 5,200 600 Climbing Atlanta Center
11:39AM 34.7208 -83.8669 139° Southeast 151 174 5,800 660 Climbing Atlanta Center
11:40AM 34.6875 -83.8569 166° South 139 160 6,600 720 Climbing Atlanta Center
11:41AM 34.6539 -83.8444 163° South 126 145 7,300 600 Climbing Atlanta Center
11:42AM 34.6206 -83.8344 166° South 126 145 7,900 360 Climbing Atlanta Center
11:43AM 34.5831 -83.8217 164° South 126 145 8,100  Climbing Atlanta Center
11:44AM 34.5350 -83.8094 168° South 155 178 8,000  Descending Atlanta Center
11:45AM 34.4911 -83.7942 164° South 167 192 8,100  Climbing Atlanta Center
11:46AM 34.4494 -83.7819 166° South 167 192 8,000 180 Descending Atlanta Center
11:47AM 34.4014 -83.7694 168° South 172 198 8,500 420 Climbing Atlanta Center
11:48AM 34.3594 -83.7544 164° South 163 188 8,900 300 Climbing Atlanta Center
11:49AM 34.3156 -83.7419 167° South 163 188 9,100 60 Climbing Atlanta Center
11:50AM 34.2719 -83.7322 170° South 163 188 9,100  Level Atlanta Center
11:51AM 34.2197 -83.7197 169° South 175 201 9,100  Level Atlanta Center
11:52AM 34.1694 -83.7072 168° South 175 201 9,100  Level Atlanta Center
11:53AM 34.1214 -83.6950 168° South 180 207 9,100  Level Atlanta Center
11:54AM 34.0733 -83.6828 168° South 180 207 9,100  Level Atlanta Center
11:55AM 34.0253 -83.6703 168° South 180 207 9,100  Level Atlanta Center
11:56AM 33.9753 -83.6556 166° South 180 207 9,100  Level Atlanta Center
11:59AM 33.8667 -83.6333 170° South 176 203 9,200  Climbing Atlanta TRACON
12:00PM 33.8167 -83.6167 165° South 180 207 9,100 -60 Descending Atlanta TRACON
12:01PM 33.7667 -83.6000 165° South 180 207 9,100  Level Atlanta TRACON
12:01PM 33.7167 -83.5833 165° South 181 208 9,100 -60 Level Atlanta TRACON
12:03PM 33.6667 -83.5667 164° South 179 206 9,000 -60 Descending Atlanta TRACON
12:04PM 33.6167 -83.5500 164° South 180 207 9,000  Level Atlanta TRACON
12:05PM 33.5667 -83.5333 164° South 176 203 9,100  Climbing Atlanta TRACON
12:06PM 33.5167 -83.5167 164° South 178 205 9,100  Level Atlanta TRACON
12:07PM 33.4833 -83.5167 180° South 176 203 9,100  Level Atlanta TRACON
12:08PM 33.4333 -83.5000 164° South 177 204 9,100  Level Atlanta TRACON
12:09PM 33.3833 -83.4833 164° South 175 201 9,100  Level Atlanta TRACON
12:10PM 33.3333 -83.4667 164° South 178 205 9,200  Climbing Atlanta TRACON
12:11PM 33.2833 -83.4500 164° South 178 205 9,100 -60 Descending Atlanta TRACON
12:12PM 33.2333 -83.4333 164° South 177 204 9,100 -60 Level Atlanta TRACON
12:12PM 33.2000 -83.4167 157° South 178 205 9,000  Descending Atlanta TRACON
12:14PM 33.1500 -83.4000 164° South 177 204 9,100  Climbing Atlanta TRACON
12:15PM 33.1000 -83.3833 164° South 177 204 9,100  Level Atlanta TRACON
12:15PM 33.0500 -83.3667 164° South 178 205 9,100 -60 Level Atlanta TRACON
12:16PM 33.0000 -83.3500 164° South 180 207 9,000 -60 Descending Atlanta TRACON
12:17PM 32.9667 -83.3333 157° South 178 205 9,000  Level Atlanta TRACON
12:18PM 32.9167 -83.3167 164° South 176 203 9,100  Climbing Atlanta TRACON
12:19PM 32.8667 -83.3000 164° South 181 208 9,100  Level Atlanta TRACON
12:20PM 32.8167 -83.3000 180° South 179 206 9,100 -60 Level Atlanta TRACON
12:21PM 32.7667 -83.2833 164° South 176 203 9,000 -60 Descending Atlanta TRACON
12:22PM 32.7333 -83.2667 157° South 180 207 9,000  Level Atlanta TRACON
12:23PM 32.6833 -83.2500 164° South 178 205 9,000  Level Atlanta TRACON
12:25PM 32.6333 -83.2333 164° South 175 201 9,000  Level Atlanta TRACON
12:26PM 32.5833 -83.2167 164° South 176 203 9,000 -60 Level Atlanta TRACON
12:27PM 32.5003 -83.1906 165° South 184 212 8,900  Descending Jacksonville Center
12:28PM 32.4522 -83.1758 166° South 184 212 9,000 60 Climbing Jacksonville Center
12:29PM 32.4042 -83.1608 165° South 184 212 9,100  Climbing Jacksonville Center
12:30PM 32.3606 -83.1433 161° South 184 212 9,100  Level Jacksonville Center
12:31PM 32.3144 -83.1236 160° South 184 212 9,100 -60 Level Jacksonville Center
12:32PM 32.2708 -83.1014 157° South 179 206 9,000 -60 Descending Jacksonville Center
12:33PM 32.2247 -83.0817 160° South 173 199 9,000  Level Jacksonville Center
12:34PM 32.1831 -83.0569 153° Southeast 173 199 9,100  Climbing Jacksonville Center
12:35PM 32.1394 -83.0350 157° South 168 193 9,100  Level Jacksonville Center
12:36PM 32.1039 -83.0153 155° Southeast 173 199 9,100  Level Jacksonville Center
12:37PM 32.0558 -82.9906 156° South 173 199 9,100  Level Jacksonville Center
12:38PM 32.0142 -82.9686 156° South 173 199 9,100  Level Jacksonville Center
12:39PM 31.9703 -82.9417 152° Southeast 173 199 9,100  Level Jacksonville Center
12:40PM 31.9286 -82.9169 153° Southeast 173 199 9,100  Level Jacksonville Center
12:41PM 31.8847 -82.8950 157° South 173 199 9,100  Level Jacksonville Center
12:42PM 31.8428 -82.8681 151° Southeast 173 199 9,100  Level Jacksonville Center
12:43PM 31.7992 -82.8461 157° South 173 199 9,100  Level Jacksonville Center
12:44PM 31.7553 -82.8192 152° Southeast 173 199 9,100  Level Jacksonville Center
12:45PM 31.7133 -82.7950 154° Southeast 173 199 9,100  Level Jacksonville Center
12:46PM 31.6717 -82.7731 156° South 173 199 9,100  Level Jacksonville Center
12:47PM 31.6256 -82.7486 156° South 173 199 9,100  Level Jacksonville Center
12:48PM 31.5839 -82.7267 156° South 173 199 9,100  Level Jacksonville Center
12:49PM 31.5400 -82.7025 155° Southeast 173 199 9,100  Level Jacksonville Center
12:50PM 31.4919 -82.6806 159° South 173 199 9,100 -60 Level Jacksonville Center
12:51PM 31.4503 -82.6611 158° South 168 193 9,000  Descending Jacksonville Center
12:52PM 31.4064 -82.6369 155° Southeast 173 199 9,100  Climbing Jacksonville Center
12:53PM 31.3542 -82.6178 163° South 173 199 9,100  Level Jacksonville Center
12:54PM 31.3122 -82.5958 156° South 173 199 9,200  Climbing Jacksonville Center
12:55PM 31.2664 -82.5742 158° South 173 199 9,100 -60 Descending Jacksonville Center
12:56PM 31.2183 -82.5647 170° South 173 199 9,100  Level Jacksonville Center
12:57PM 31.1703 -82.5622 177° South 167 192 9,100 -60 Level Jacksonville Center
12:58PM 31.1222 -82.5600 178° South 172 198 9,000  Descending Jacksonville Center
12:59PM 31.0719 -82.5578 178° South 172 198 9,100  Climbing Jacksonville Center
01:00PM 31.0281 -82.5458 167° South 172 198 9,100 -60 Level Jacksonville Center
01:01PM 30.9800 -82.5411 175° South 178 205 9,000 -60 Descending Jacksonville Center
01:02PM 30.9319 -82.5367 175° South 178 205 9,000  Level Jacksonville Center
01:03PM 30.8842 -82.5294 173° South 178 205 9,100  Climbing Jacksonville Center
01:04PM 30.8381 -82.5247 175° South 178 205 9,100 -60 Level Jacksonville Center
01:05PM 30.7900 -82.5203 175° South 178 205 9,000 -60 Descending Jacksonville Center
01:06PM 30.7419 -82.5156 175° South 178 205 9,000  Level Jacksonville Center
01:07PM 30.6939 -82.5156 180° South 178 205 9,000  Level Jacksonville Center
01:08PM 30.6458 -82.5158 180° South 178 205 9,000  Level Jacksonville Center
01:09PM 30.5981 -82.5161 180° South 178 205 9,100  Climbing Jacksonville Center
01:10PM 30.5519 -82.5211 185° South 178 205 9,000 -60 Descending Jacksonville Center
01:11PM 30.5061 -82.5308 190° South 178 205 9,000  Level Jacksonville Center
01:12PM 30.4603 -82.5431 193° South 178 205 9,000  Level Jacksonville Center
01:13PM 30.4142 -82.5408 178° South 178 205 9,000  Level Jacksonville Center
01:14PM 30.3683 -82.5314 170° South 178 205 9,000  Level Jacksonville Center
01:15PM 30.3244 -82.5219 169° South 178 205 9,100  Climbing Jacksonville Center
01:16PM 30.2764 -82.5125 170° South 165 190 9,100  Level Jacksonville Center
01:17PM 30.2325 -82.5008 167° South 173 199 9,100  Level Jacksonville Center
01:18PM 30.1886 -82.4914 169° South 173 199 9,200  Climbing Jacksonville Center
01:19PM 30.1428 -82.4819 170° South 163 188 9,100  Descending Jacksonville Center
01:20PM 30.0967 -82.4700 167° South 163 188 9,200  Climbing Jacksonville Center
01:21PM 30.0528 -82.4558 164° South 163 188 9,100 -60 Descending Jacksonville Center
01:22PM 30.0089 -82.4442 167° South 163 188 9,100  Level Jacksonville Center
01:23PM 29.9483 -82.4300 169° South 171 197 9,100  Level Jacksonville Center
01:24PM 29.9192 -82.4181 160° South 163 188 9,200  Climbing Jacksonville Center
01:25PM 29.8731 -82.4039 165° South 163 188 9,200  Level Jacksonville Center
01:26PM 29.8083 -82.3900 169° South 173 199 9,200  Level Jacksonville Center
01:27PM 29.7603 -82.3783 168° South 175 201 9,200  Level Jacksonville Center
01:28PM 29.7142 -82.3642 165° South 172 198 9,200  Level Jacksonville Center
01:29PM 29.6683 -82.3522 167° South 172 198 9,200  Level Jacksonville Center
01:30PM 29.6203 -82.3383 166° South 170 196 9,200  Level Jacksonville Center
01:32PM 29.5742 -82.3242 165° South 173 199 9,200 -60 Level Jacksonville Center
01:33PM 29.5242 -82.3197 176° South 171 197 9,100  Descending Jacksonville Center
01:34PM 29.4739 -82.3081 169° South 165 190 9,200  Climbing Jacksonville Center
01:35PM 29.4364 -82.3036 174° South 166 191 9,200 -60 Level Jacksonville Center
01:36PM 29.3819 -82.2919 169° South 173 199 9,100 -60 Descending Jacksonville Center
01:37PM 29.3381 -82.2803 167° South 166 191 9,100  Level Jacksonville Center
01:38PM 29.2942 -82.2686 167° South 166 191 9,100 -240 Level Jacksonville Center
01:39PM 29.2461 -82.2547 166° South 174 200 8,700 -660 Descending Jacksonville Center
01:40PM 29.1917 -82.2383 165° South 199 229 7,800 -960 Descending Jacksonville Center
01:41PM 29.1394 -82.2197 163° South 200 230 6,800 -900 Descending Jacksonville Center
01:42PM 29.0872 -82.2106 171° South 195 224 6,000 -900 Descending Jacksonville Center
01:43PM 29.0331 -82.2086 178° South 192 221 5,000 -720 Descending Jacksonville Center
01:44PM 28.9808 -82.2019 174° South 171 197 4,600 -660 Descending Jacksonville Center
01:45PM 28.9347 -82.2022 180° South 175 201 3,800 -600 Descending Jacksonville Center
01:46PM 28.8847 -82.1931 171° South 174 200 3,400 -360 Descending Jacksonville Center
01:47PM 28.8408 -82.1861 172° South 167 192 3,100 -360 Descending Jacksonville Center